createdAt,value
2018-11-29T00:00:51.334Z,94026.72
2018-11-29T00:03:18.862Z,94025.48
2018-11-29T00:05:46.268Z,94017.06
2018-11-29T00:08:13.690Z,94020.03
2018-11-29T00:10:41.126Z,94017.48
2018-11-29T00:13:08.551Z,94019.17
2018-11-29T00:15:36.021Z,94017.03
2018-11-29T00:18:03.507Z,94016.20
2018-11-29T00:20:31.015Z,94010.73
2018-11-29T00:22:58.386Z,94016.59
2018-11-29T00:25:25.810Z,94014.89
2018-11-29T00:27:53.202Z,94013.61
2018-11-29T00:30:21.855Z,94022.47
2018-11-29T00:32:50.205Z,94013.19
2018-11-29T00:35:17.876Z,94015.72
2018-11-29T00:37:45.545Z,94012.34
2018-11-29T00:40:18.750Z,94015.72
2018-11-29T00:42:46.165Z,94009.80
2018-11-29T00:45:17.735Z,94014.86
2018-11-29T00:47:45.871Z,94021.14
2018-11-29T00:50:13.955Z,94021.95
2018-11-29T00:52:43.171Z,94019.41
2018-11-29T00:55:11.532Z,94029.13
2018-11-29T00:57:39.143Z,94015.25
2018-11-29T01:00:13.443Z,94021.58
2018-11-29T01:02:40.849Z,94014.85
2018-11-29T01:05:08.252Z,94018.64
2018-11-29T01:07:35.697Z,94007.26
2018-11-29T01:10:05.322Z,94009.36
2018-11-29T01:12:32.737Z,93999.71
2018-11-29T01:15:00.133Z,93998.48
2018-11-29T01:17:27.553Z,94002.28
2018-11-29T01:19:54.925Z,93998.52
2018-11-29T01:22:22.316Z,93998.55
2018-11-29T01:24:49.698Z,94000.26
2018-11-29T01:27:17.147Z,93999.37
2018-11-29T01:29:44.533Z,93998.11
2018-11-29T01:32:11.957Z,94007.86
2018-11-29T01:34:39.345Z,93995.66
2018-11-29T01:37:06.799Z,93999.44
2018-11-29T01:39:34.193Z,93992.74
2018-11-29T01:42:01.593Z,93983.09
2018-11-29T01:44:29.016Z,93983.52
2018-11-29T01:46:56.398Z,93983.09
2018-11-29T01:49:23.859Z,93991.53
2018-11-29T01:51:51.238Z,93994.47
2018-11-29T01:54:18.654Z,93996.63
2018-11-29T01:56:45.993Z,93996.63
2018-11-29T01:59:13.420Z,93996.61
2018-11-29T02:01:40.825Z,93997.02
2018-11-29T02:04:08.314Z,94002.09
2018-11-29T02:06:35.700Z,94003.77
2018-11-29T02:09:03.562Z,94004.98
2018-11-29T02:11:30.969Z,94000.78
2018-11-29T02:13:58.348Z,94003.72
2018-11-29T02:16:25.778Z,93997.80
2018-11-29T02:18:53.153Z,94004.53
2018-11-29T02:21:21.695Z,93994.42
2018-11-29T02:23:48.214Z,93985.14
2018-11-29T02:26:15.619Z,93985.13
2018-11-29T02:28:46.329Z,93985.98
2018-11-29T02:31:13.739Z,93984.73
2018-11-29T02:33:41.187Z,93974.25
2018-11-29T02:36:08.629Z,93972.12
2018-11-29T02:38:36.315Z,93971.30
2018-11-29T02:41:04.095Z,93971.73
2018-11-29T02:43:31.475Z,93968.76
2018-11-29T02:45:58.905Z,93959.92
2018-11-29T02:48:26.305Z,93959.50
2018-11-29T02:50:53.745Z,93949.83
2018-11-29T02:53:21.082Z,93950.25
2018-11-29T02:55:48.489Z,93948.13
2018-11-29T02:58:15.928Z,93944.73
2018-11-29T03:00:43.380Z,93945.56
2018-11-29T03:03:10.813Z,93945.56
2018-11-29T03:05:38.217Z,93943.45
2018-11-29T03:08:06.047Z,93943.86
2018-11-29T03:10:33.473Z,93940.94
2018-11-29T03:13:00.931Z,93942.19
2018-11-29T03:15:28.329Z,93940.92
2018-11-29T03:17:55.776Z,93934.23
2018-11-29T03:20:23.158Z,93933.36
2018-11-29T03:22:50.570Z,93929.58
2018-11-29T03:25:17.981Z,93926.64
2018-11-29T03:27:45.412Z,93924.51
2018-11-29T03:30:13.829Z,93913.55
2018-11-29T03:32:41.272Z,93912.73
2018-11-29T03:35:09.693Z,93909.36
2018-11-29T03:37:37.134Z,93908.97
2018-11-29T03:40:07.997Z,93910.18
2018-11-29T03:42:35.367Z,93904.72
2018-11-29T03:45:02.831Z,93900.55
2018-11-29T03:47:30.239Z,93900.12
2018-11-29T03:49:57.690Z,93891.72
2018-11-29T03:52:25.085Z,93896.79
2018-11-29T03:54:52.483Z,93891.73
2018-11-29T03:57:19.852Z,93896.79
2018-11-29T03:59:47.235Z,93893.42
2018-11-29T04:02:14.590Z,93893.42
2018-11-29T04:04:42.043Z,93893.83
2018-11-29T04:07:09.466Z,93891.29
2018-11-29T04:09:36.895Z,93892.58
2018-11-29T04:12:04.391Z,93892.12
2018-11-29T04:14:31.805Z,93888.79
2018-11-29T04:17:00.664Z,93890.45
2018-11-29T04:19:28.063Z,93879.52
2018-11-29T04:21:55.488Z,93884.17
2018-11-29T04:24:22.869Z,93880.36
2018-11-29T04:26:50.276Z,93872.80
2018-11-29T04:29:17.637Z,93871.55
2018-11-29T04:31:45.088Z,93854.30
2018-11-29T04:34:12.478Z,93856.81
2018-11-29T04:36:39.864Z,93853.86
2018-11-29T04:39:07.559Z,93846.27
2018-11-29T04:41:35.033Z,93848.81
2018-11-29T04:44:02.728Z,93838.28
2018-11-29T04:46:40.768Z,93835.36
2018-11-29T04:49:08.138Z,93837.05
2018-11-29T04:51:35.613Z,93835.34
2018-11-29T04:54:03.044Z,93829.02
2018-11-29T04:56:30.456Z,93825.63
2018-11-29T04:58:57.878Z,93830.28
2018-11-29T05:01:25.301Z,93822.30
2018-11-29T05:03:52.713Z,93821.43
2018-11-29T05:06:20.119Z,93821.02
2018-11-29T05:08:47.528Z,93825.20
2018-11-29T05:11:14.979Z,93837.38
2018-11-29T05:13:42.439Z,93834.42
2018-11-29T05:16:09.818Z,93829.33
2018-11-29T05:18:37.263Z,93831.88
2018-11-29T05:21:05.727Z,93832.28
2018-11-29T05:23:33.204Z,93830.62
2018-11-29T05:26:00.644Z,93830.62
2018-11-29T05:28:28.029Z,93833.17
2018-11-29T05:30:55.478Z,93831.11
2018-11-29T05:33:22.840Z,93832.36
2018-11-29T05:35:50.270Z,93831.92
2018-11-29T05:38:17.618Z,93829.84
2018-11-29T05:40:44.999Z,93838.27
2018-11-29T05:43:12.358Z,93835.77
2018-11-29T05:45:39.809Z,93837.04
2018-11-29T05:48:07.256Z,93832.45
2018-11-29T05:50:34.704Z,93825.73
2018-11-29T05:53:02.084Z,93824.88
2018-11-29T05:55:29.531Z,93824.02
2018-11-29T05:57:56.919Z,93827.80
2018-11-29T06:00:24.431Z,93828.64
2018-11-29T06:02:51.818Z,93826.95
2018-11-29T06:05:19.279Z,93827.41
2018-11-29T06:07:46.684Z,93829.52
2018-11-29T06:10:17.001Z,93821.09
2018-11-29T06:12:44.686Z,93821.91
2018-11-29T06:15:12.207Z,93817.70
2018-11-29T06:17:39.907Z,93813.92
2018-11-29T06:20:10.765Z,93816.84
2018-11-29T06:22:38.144Z,93825.66
2018-11-29T06:25:06.125Z,93824.00
2018-11-29T06:27:33.614Z,93818.95
2018-11-29T06:30:01.014Z,93815.58
2018-11-29T06:32:28.496Z,93812.64
2018-11-29T06:34:55.898Z,93806.32
2018-11-29T06:37:23.352Z,93812.61
2018-11-29T06:39:50.716Z,93815.12
2018-11-29T06:42:18.149Z,93816.38
2018-11-29T06:44:45.540Z,93820.56
2018-11-29T06:47:12.980Z,93816.34
2018-11-29T06:49:40.426Z,93818.88
2018-11-29T06:52:07.916Z,93816.33
2018-11-29T06:54:35.319Z,93816.33
2018-11-29T06:57:02.734Z,93811.31
2018-11-29T06:59:30.171Z,93811.73
2018-11-29T07:01:57.581Z,93808.33
2018-11-29T07:04:24.953Z,93802.84
2018-11-29T07:06:52.335Z,93798.25
2018-11-29T07:09:20.408Z,93788.13
2018-11-29T07:11:47.211Z,93790.27
2018-11-29T07:14:14.622Z,93792.34
2018-11-29T07:16:42.060Z,93796.14
2018-11-29T07:19:14.888Z,93791.06
2018-11-29T07:21:47.597Z,93791.49
2018-11-29T07:24:15.130Z,93788.98
2018-11-29T07:26:42.551Z,93791.11
2018-11-29T07:29:09.974Z,93794.02
2018-11-29T07:31:37.400Z,93794.06
2018-11-29T07:34:05.020Z,93797.43
2018-11-29T07:36:32.400Z,93809.19
2018-11-29T07:38:59.846Z,93819.32
2018-11-29T07:41:27.274Z,93820.58
2018-11-29T07:43:54.691Z,93816.80
2018-11-29T07:46:22.096Z,93813.81
2018-11-29T07:48:49.494Z,93823.47
2018-11-29T07:51:16.883Z,93815.52
2018-11-29T07:53:44.414Z,93817.17
2018-11-29T07:56:11.844Z,93810.07
2018-11-29T07:58:39.209Z,93810.47
2018-11-29T08:01:06.792Z,93806.28
2018-11-29T08:03:34.305Z,93801.25
2018-11-29T08:06:01.955Z,93795.78
2018-11-29T08:08:29.383Z,93792.84
2018-11-29T08:10:56.881Z,93791.58
2018-11-29T08:13:24.320Z,93785.72
2018-11-29T08:15:51.691Z,93784.88
2018-11-29T08:18:19.260Z,93781.93
2018-11-29T08:20:46.660Z,93786.98
2018-11-29T08:23:14.078Z,93781.11
2018-11-29T08:25:41.521Z,93774.37
2018-11-29T08:28:09.013Z,93773.94
2018-11-29T08:30:36.419Z,93773.08
2018-11-29T08:33:03.990Z,93778.97
2018-11-29T08:35:31.414Z,93784.84
2018-11-29T08:37:58.866Z,93778.91
2018-11-29T08:40:26.244Z,93778.45
2018-11-29T08:42:53.702Z,93780.16
2018-11-29T08:45:21.120Z,93780.55
2018-11-29T08:47:48.546Z,93773.36
2018-11-29T08:50:16.001Z,93768.67
2018-11-29T08:52:45.172Z,93766.08
2018-11-29T08:55:13.771Z,93759.69
2018-11-29T08:57:41.201Z,93764.75
2018-11-29T09:00:13.563Z,93761.78
2018-11-29T09:02:41.015Z,93762.99
2018-11-29T09:05:09.567Z,93759.17
2018-11-29T09:07:36.954Z,93758.66
2018-11-29T09:10:06.196Z,93761.14
2018-11-29T09:12:33.585Z,93757.21
2018-11-29T09:15:01.021Z,93757.96
2018-11-29T09:17:28.397Z,93756.19
2018-11-29T09:19:55.837Z,93752.72
2018-11-29T09:22:23.265Z,93746.30
2018-11-29T09:24:50.680Z,93743.22
2018-11-29T09:27:18.084Z,93742.65
2018-11-29T09:29:45.485Z,93737.08
2018-11-29T09:32:12.899Z,93732.98
2018-11-29T09:34:40.327Z,93732.01
2018-11-29T09:37:07.719Z,93733.64
2018-11-29T09:39:35.127Z,93733.94
2018-11-29T09:42:03.063Z,93734.34
2018-11-29T09:44:29.978Z,93737.47
2018-11-29T09:46:57.362Z,93747.67
2018-11-29T09:49:24.826Z,93747.59
2018-11-29T09:51:52.232Z,93757.84
2018-11-29T09:54:19.663Z,93755.58
2018-11-29T09:56:47.077Z,93755.53
2018-11-29T09:59:14.533Z,93749.17
2018-11-29T10:01:41.945Z,93745.45
2018-11-29T10:04:09.336Z,93730.41
2018-11-29T10:06:36.792Z,93720.47
2018-11-29T10:09:07.022Z,93717.29
2018-11-29T10:11:34.472Z,93712.43
2018-11-29T10:14:01.934Z,93713.66
2018-11-29T10:16:29.290Z,93698.66
2018-11-29T10:18:56.700Z,93692.13
2018-11-29T10:21:24.080Z,93672.79
2018-11-29T10:23:51.492Z,93669.31
2018-11-29T10:26:18.876Z,93668.26
2018-11-29T10:28:46.279Z,93666.64
2018-11-29T10:31:13.717Z,93667.09
2018-11-29T10:33:41.239Z,93667.82
2018-11-29T10:36:08.660Z,93670.88
2018-11-29T10:38:36.059Z,93674.42
2018-11-29T10:41:03.526Z,93675.13
2018-11-29T10:43:30.971Z,93673.75
2018-11-29T10:45:58.396Z,93675.47
2018-11-29T10:48:25.806Z,93669.02
2018-11-29T10:50:53.198Z,93667.33
2018-11-29T10:53:20.654Z,93663.83
2018-11-29T10:55:48.089Z,93665.17
2018-11-29T10:58:15.477Z,93669.00
2018-11-29T11:00:48.561Z,93667.45
2018-11-29T11:03:20.765Z,93661.81
2018-11-29T11:05:50.380Z,93661.08
2018-11-29T11:08:17.786Z,93653.90
2018-11-29T11:10:45.231Z,93647.26
2018-11-29T11:13:12.678Z,93648.95
2018-11-29T11:15:40.066Z,93648.61
2018-11-29T11:18:08.763Z,93648.09
2018-11-29T11:20:36.245Z,93645.33
2018-11-29T11:23:03.832Z,93644.37
2018-11-29T11:25:31.311Z,93639.94
2018-11-29T11:28:00.081Z,93629.73
2018-11-29T11:30:27.555Z,93631.21
2018-11-29T11:32:54.991Z,93628.81
2018-11-29T11:35:22.456Z,93628.43
2018-11-29T11:37:49.851Z,93633.17
2018-11-29T11:40:17.386Z,93633.30
2018-11-29T11:42:45.612Z,93621.91
2018-11-29T11:45:15.140Z,93629.47
2018-11-29T11:47:42.613Z,93635.11
2018-11-29T11:50:14.977Z,93643.29
2018-11-29T11:52:42.395Z,93638.02
2018-11-29T11:55:10.432Z,93641.41
2018-11-29T11:57:37.996Z,93642.61
2018-11-29T12:00:13.691Z,93637.08
2018-11-29T12:02:41.304Z,93637.36
2018-11-29T12:05:09.507Z,93628.30
2018-11-29T12:07:36.932Z,93632.01
2018-11-29T12:10:05.262Z,93626.11
2018-11-29T12:12:32.660Z,93629.27
2018-11-29T12:15:00.090Z,93622.86
2018-11-29T12:17:27.504Z,93628.30
2018-11-29T12:19:54.914Z,93624.66
2018-11-29T12:22:22.334Z,93615.06
2018-11-29T12:24:49.904Z,93613.02
2018-11-29T12:27:17.329Z,93607.70
2018-11-29T12:29:44.788Z,93602.50
2018-11-29T12:32:12.181Z,93600.77
2018-11-29T12:34:39.542Z,93595.81
2018-11-29T12:37:07.024Z,93591.91
2018-11-29T12:39:34.432Z,93593.41
2018-11-29T12:42:01.927Z,93585.09
2018-11-29T12:44:29.372Z,93584.03
2018-11-29T12:46:56.842Z,93581.64
2018-11-29T12:49:24.251Z,93579.30
2018-11-29T12:51:51.671Z,93568.45
2018-11-29T12:54:19.049Z,93566.93
2018-11-29T12:56:46.468Z,93565.80
2018-11-29T12:59:13.868Z,93554.92
2018-11-29T13:01:41.306Z,93544.48
2018-11-29T13:04:08.758Z,93543.27
2018-11-29T13:06:36.191Z,93531.49
2018-11-29T13:09:07.708Z,93531.10
2018-11-29T13:11:35.177Z,93539.06
2018-11-29T13:14:02.761Z,93529.78
2018-11-29T13:16:30.158Z,93530.09
2018-11-29T13:18:57.649Z,93529.20
2018-11-29T13:21:24.997Z,93528.95
2018-11-29T13:23:52.574Z,93530.77
2018-11-29T13:26:20.096Z,93530.08
2018-11-29T13:28:47.596Z,93527.67
2018-11-29T13:31:15.013Z,93521.29
2018-11-29T13:33:42.467Z,93529.00
2018-11-29T13:36:09.933Z,93530.84
2018-11-29T13:38:37.347Z,93528.84
2018-11-29T13:41:04.785Z,93528.64
2018-11-29T13:43:32.237Z,93536.27
2018-11-29T13:45:59.652Z,93535.56
2018-11-29T13:48:27.111Z,93539.23
2018-11-29T13:50:54.496Z,93542.66
2018-11-29T13:53:21.929Z,93545.42
2018-11-29T13:55:49.333Z,93552.00
2018-11-29T13:58:16.732Z,93556.02
2018-11-29T14:00:44.191Z,93558.33
2018-11-29T14:03:12.900Z,93552.08
2018-11-29T14:05:40.369Z,93552.77
2018-11-29T14:08:08.717Z,93555.96
2018-11-29T14:10:36.621Z,93561.58
2018-11-29T14:13:05.118Z,93559.56
2018-11-29T14:15:32.559Z,93549.94
2018-11-29T14:17:59.991Z,93545.77
2018-11-29T14:20:27.482Z,93543.28
2018-11-29T14:22:54.889Z,93542.54
2018-11-29T14:25:22.317Z,93542.19
2018-11-29T14:27:51.088Z,93542.71
2018-11-29T14:30:20.482Z,93542.19
2018-11-29T14:32:48.067Z,93537.59
2018-11-29T14:35:15.472Z,93540.88
2018-11-29T14:37:42.961Z,93540.92
2018-11-29T14:40:14.402Z,93544.06
2018-11-29T14:42:41.909Z,93541.52
2018-11-29T14:45:14.391Z,93553.47
2018-11-29T14:47:41.853Z,93551.08
2018-11-29T14:50:14.916Z,93541.38
2018-11-29T14:52:42.373Z,93536.29
2018-11-29T14:55:10.308Z,93527.13
2018-11-29T14:57:37.959Z,93521.27
2018-11-29T15:00:07.930Z,93519.92
2018-11-29T15:02:35.386Z,93516.59
2018-11-29T15:05:07.700Z,93519.05
2018-11-29T15:07:30.396Z,93514.73
2018-11-29T15:09:57.862Z,93513.14
2018-11-29T15:12:25.278Z,93515.64
2018-11-29T15:14:52.747Z,93510.48
2018-11-29T15:17:20.166Z,93500.81
2018-11-29T15:19:47.594Z,93502.39
2018-11-29T15:22:15.018Z,93496.49
2018-11-29T15:24:42.455Z,93495.27
2018-11-29T15:27:09.903Z,93495.74
2018-11-29T15:29:37.266Z,93495.34
2018-11-29T15:32:05.043Z,93495.47
2018-11-29T15:34:32.422Z,93494.28
2018-11-29T15:36:59.877Z,93488.05
2018-11-29T15:39:27.334Z,93482.23
2018-11-29T15:41:54.771Z,93484.87
2018-11-29T15:44:22.206Z,93485.78
2018-11-29T15:46:49.623Z,93484.00
2018-11-29T15:49:17.014Z,93479.73
2018-11-29T15:51:44.431Z,93472.05
2018-11-29T15:54:11.859Z,93469.44
2018-11-29T15:56:39.329Z,93468.24
2018-11-29T15:59:06.788Z,93476.28
2018-11-29T16:01:34.228Z,93477.16
2018-11-29T16:04:01.691Z,93478.14
2018-11-29T16:06:29.134Z,93466.77
2018-11-29T16:08:56.525Z,93470.97
2018-11-29T16:11:23.974Z,93475.67
2018-11-29T16:13:51.424Z,93492.23
2018-11-29T16:16:18.813Z,93491.83
2018-11-29T16:18:46.270Z,93479.70
2018-11-29T16:21:13.752Z,93495.87
2018-11-29T16:23:41.341Z,93506.07
2018-11-29T16:26:08.785Z,93512.87
2018-11-29T16:28:36.216Z,93510.86
2018-11-29T16:31:04.172Z,93520.67
2018-11-29T16:33:33.263Z,93502.25
2018-11-29T16:36:00.819Z,93502.70
2018-11-29T16:38:28.252Z,93503.17
2018-11-29T16:40:55.680Z,93504.46
2018-11-29T16:43:23.118Z,93507.45
2018-11-29T16:45:50.598Z,93497.70
2018-11-29T16:48:18.052Z,93504.05
2018-11-29T16:50:45.510Z,93496.92
2018-11-29T16:53:12.959Z,93488.56
2018-11-29T16:55:40.415Z,93485.17
2018-11-29T16:58:14.069Z,93497.39
2018-11-29T17:00:41.558Z,93499.95
2018-11-29T17:03:09.056Z,93489.88
2018-11-29T17:05:36.555Z,93494.97
2018-11-29T17:08:04.047Z,93488.27
2018-11-29T17:10:31.507Z,93487.45
2018-11-29T17:13:01.529Z,93488.73
2018-11-29T17:15:29.083Z,93483.67
2018-11-29T17:17:56.507Z,93484.11
2018-11-29T17:20:24.005Z,93482.44
2018-11-29T17:22:51.737Z,93487.85
2018-11-29T17:25:19.292Z,93484.80
2018-11-29T17:27:46.748Z,93487.83
2018-11-29T17:30:19.069Z,93484.42
2018-11-29T17:32:46.855Z,93488.64
2018-11-29T17:35:14.431Z,93484.46
2018-11-29T17:37:41.950Z,93487.04
2018-11-29T17:40:17.018Z,93490.45
2018-11-29T17:42:44.512Z,93484.17
2018-11-29T17:45:14.386Z,93481.23
2018-11-29T17:47:42.597Z,93479.56
2018-11-29T17:50:47.217Z,93483.38
2018-11-29T17:53:14.707Z,93482.55
2018-11-29T17:55:42.214Z,93477.08
2018-11-29T17:58:13.758Z,93481.69
2018-11-29T18:00:42.304Z,93475.41
2018-11-29T18:03:09.895Z,93465.68
2018-11-29T18:05:37.426Z,93469.02
2018-11-29T18:08:04.957Z,93463.19
2018-11-29T18:10:34.182Z,93477.16
2018-11-29T18:13:20.464Z,93471.70
2018-11-29T18:15:47.908Z,93468.70
2018-11-29T18:18:15.415Z,93462.39
2018-11-29T18:20:42.892Z,93468.34
2018-11-29T18:23:10.532Z,93459.55
2018-11-29T18:25:37.957Z,93464.17
2018-11-29T18:28:06.315Z,93465.89
2018-11-29T18:30:33.793Z,93458.66
2018-11-29T18:33:01.233Z,93463.72
2018-11-29T18:35:28.667Z,93464.20
2018-11-29T18:37:56.158Z,93457.89
2018-11-29T18:40:23.594Z,93458.81
2018-11-29T18:42:54.318Z,93455.44
2018-11-29T18:45:21.738Z,93461.37
2018-11-29T18:47:50.367Z,93454.20
2018-11-29T18:50:18.742Z,93454.67
2018-11-29T18:52:46.247Z,93459.32
2018-11-29T18:55:13.709Z,93459.73
2018-11-29T18:57:41.159Z,93458.92
2018-11-29T19:00:16.958Z,93453.47
2018-11-29T19:02:44.418Z,93451.00
2018-11-29T19:05:11.977Z,93457.73
2018-11-29T19:07:39.423Z,93453.49
2018-11-29T19:10:12.419Z,93456.06
2018-11-29T19:12:44.349Z,93451.43
2018-11-29T19:15:12.507Z,93455.68
2018-11-29T19:17:40.054Z,93460.31
2018-11-29T19:20:11.966Z,93461.56
2018-11-29T19:22:53.341Z,93460.27
2018-11-29T19:25:21.368Z,93460.25
2018-11-29T19:27:48.835Z,93464.05
2018-11-29T19:30:22.529Z,93468.69
2018-11-29T19:32:55.301Z,93467.44
2018-11-29T19:35:22.865Z,93466.18
2018-11-29T19:37:50.235Z,93463.65
2018-11-29T19:40:17.809Z,93456.92
2018-11-29T19:42:45.205Z,93452.66
2018-11-29T19:45:13.935Z,93453.51
2018-11-29T19:47:41.369Z,93451.36
2018-11-29T19:50:18.358Z,93450.92
2018-11-29T19:52:49.065Z,93455.52
2018-11-29T19:55:19.134Z,93445.73
2018-11-29T19:57:46.604Z,93444.38
2018-11-29T20:00:14.373Z,93449.77
2018-11-29T20:02:42.800Z,93447.61
2018-11-29T20:05:11.089Z,93449.23
2018-11-29T20:07:38.600Z,93449.56
2018-11-29T20:10:08.375Z,93443.22
2018-11-29T20:12:35.784Z,93428.82
2018-11-29T20:15:03.288Z,93429.60
2018-11-29T20:17:30.742Z,93430.35
2018-11-29T20:19:58.149Z,93435.36
2018-11-29T20:22:25.724Z,93434.93
2018-11-29T20:24:53.172Z,93442.15
2018-11-29T20:27:20.647Z,93438.44
2018-11-29T20:29:48.562Z,93440.97
2018-11-29T20:32:16.047Z,93439.35
2018-11-29T20:34:43.539Z,93436.38
2018-11-29T20:37:11.044Z,93439.37
2018-11-29T20:39:38.543Z,93441.09
2018-11-29T20:42:06.020Z,93444.92
2018-11-29T20:44:33.504Z,93449.52
2018-11-29T20:47:06.042Z,93448.25
2018-11-29T20:49:33.685Z,93447.82
2018-11-29T20:52:01.154Z,93447.02
2018-11-29T20:54:28.679Z,93443.65
2018-11-29T20:56:56.168Z,93442.84
2018-11-29T20:59:23.634Z,93443.22
2018-11-29T21:01:51.207Z,93444.94
2018-11-29T21:04:18.655Z,93447.03
2018-11-29T21:06:46.162Z,93447.44
2018-11-29T21:09:13.679Z,93449.11
2018-11-29T21:11:41.419Z,93446.66
2018-11-29T21:14:08.877Z,93444.08
2018-11-29T21:16:36.581Z,93452.55
2018-11-29T21:19:04.395Z,93446.73
2018-11-29T21:21:31.839Z,93446.75
2018-11-29T21:23:59.474Z,93447.58
2018-11-29T21:26:27.080Z,93445.46
2018-11-29T21:28:54.914Z,93446.73
2018-11-29T21:31:22.712Z,93446.27
2018-11-29T21:33:50.131Z,93441.22
2018-11-29T21:36:17.619Z,93433.20
2018-11-29T21:38:46.005Z,93432.36
2018-11-29T21:41:13.725Z,93435.69
2018-11-29T21:43:41.187Z,93436.03
2018-11-29T21:46:08.641Z,93436.16
2018-11-29T21:48:36.194Z,93434.47
2018-11-29T21:51:03.670Z,93429.03
2018-11-29T21:53:31.125Z,93432.03
2018-11-29T21:55:58.600Z,93434.16
2018-11-29T21:58:26.143Z,93430.81
2018-11-29T22:00:53.849Z,93432.91
2018-11-29T22:03:21.373Z,93430.81
2018-11-29T22:05:48.928Z,93431.67
2018-11-29T22:08:16.349Z,93429.98
2018-11-29T22:10:43.744Z,93436.30
2018-11-29T22:13:11.266Z,93430.86
2018-11-29T22:15:38.695Z,93442.14
2018-11-29T22:18:24.306Z,93441.33
2018-11-29T22:20:56.879Z,93444.27
2018-11-29T22:23:24.377Z,93440.47
2018-11-29T22:25:52.384Z,93440.86
2018-11-29T22:28:19.813Z,93437.87
2018-11-29T22:30:47.275Z,93433.20
2018-11-29T22:33:14.754Z,93434.48
2018-11-29T22:35:42.138Z,93440.00
2018-11-29T22:38:09.589Z,93435.46
2018-11-29T22:40:37.015Z,93443.00
2018-11-29T22:43:04.502Z,93439.13
2018-11-29T22:45:31.946Z,93434.80
2018-11-29T22:47:59.357Z,93437.81
2018-11-29T22:50:26.821Z,93434.44
2018-11-29T22:52:54.217Z,93441.23
2018-11-29T22:55:21.713Z,93439.59
2018-11-29T22:57:49.167Z,93444.25
2018-11-29T23:00:19.501Z,93440.05
2018-11-29T23:02:47.904Z,93431.23
2018-11-29T23:05:15.356Z,93441.40
2018-11-29T23:07:42.778Z,93441.44
2018-11-29T23:10:11.103Z,93432.16
2018-11-29T23:12:38.480Z,93429.23
2018-11-29T23:15:08.853Z,93427.94
2018-11-29T23:17:36.273Z,93420.35
2018-11-29T23:20:10.012Z,93413.20
2018-11-29T23:22:37.748Z,93418.70
2018-11-29T23:25:06.891Z,93415.34
2018-11-29T23:27:34.305Z,93413.63
2018-11-29T23:30:01.709Z,93413.69
2018-11-29T23:32:29.180Z,93404.80
2018-11-29T23:34:56.614Z,93411.08
2018-11-29T23:37:24.029Z,93414.46
2018-11-29T23:39:51.408Z,93416.63
2018-11-29T23:42:26.247Z,93416.27
2018-11-29T23:44:53.643Z,93416.28
2018-11-29T23:47:21.090Z,93413.81
2018-11-29T23:49:48.504Z,93414.69
2018-11-29T23:52:15.961Z,93415.05
2018-11-29T23:54:43.311Z,93407.91
2018-11-29T23:57:10.745Z,93406.20
2018-11-29T23:59:38.177Z,93409.14
